KCSV/CSV METAR and TAF weather

Enter ICAO airport designator
Station Type Date Time Source
KCSV METAR 2020/07/07 23:53 UTC NOAA

KCSV 072353Z AUTO 00000KT 10SM CLR 26/20 A3002 RMK AO2 LTG DSNT NE SLP143 60031 T02560200 10289 20233 55000


Station Type Date Time Source
KCSV Decoded METAR 2020/07/07 23:53 UTC NOAA

CROSSVILLE MEMORIAL AIRPORT , TN, United States (KCSV) 35-57N 85-05W 570M
Jul 07, 2020 - 07:53 PM EDT / 2020.07.07 2353 UTC
Wind: Calm:0
Visibility: 10 mile(s):0
Sky conditions: clear
Weather: Lightning observed
Temperature: 78.1 F (25.6 C)
Dew Point: 68.0 F (20.0 C)
Relative Humidity: 71%
Pressure (altimeter): 30.02 in. Hg (1016 hPa)
Pressure tendency: 0.00 inches (0.0 hPa) lower than three hours ago
ob: KCSV 072353Z AUTO 00000KT 10SM CLR 26/20 A3002 RMK AO2 LTG DSNT NE SLP143 60031 T02560200 10289 20233 55000
cycle: 0

Station Type Date Time Source
KCSV TAF 2020/07/07 18:28 UTC NOAA

TAF KCSV 071726Z 0718/0818 VRB03KT P6SM VCTS SCT030CB OVC090
FM080300 00000KT P6SM BKN090
FM080900 00000KT 4SM BR SCT090
FM081100 00000KT 2SM BR SCT012
FM081300 VRB03KT P6SM SCT100

Example: see airport list